Time;durP1;ratioP1;P1;durP2;ratioP2;P2;SDS_P1;SDS_P2;PMS_P1;PMS_P2;Temp;Humidity;BMP_temperature;BMP_pressure;BME280_temperature;BME280_humidity;BME280_pressure;Samples;Min_cycle;Max_cycle;Signal;HPM_P1;HPM_P2
2023/07/20 00:00:25;;;;;;;3.83;3.40;;;26.70;50.50;;;;;;5076634;28;20176;-68
2023/07/20 00:02:51;;;;;;;3.60;3.20;;;26.70;50.60;;;;;;5079670;28;20181;-68
2023/07/20 00:05:21;;;;;;;2.73;2.43;;;26.70;50.60;;;;;;5081293;28;20424;-68
2023/07/20 00:07:47;;;;;;;3.60;2.97;;;26.70;51.10;;;;;;5080626;28;20194;-68
2023/07/20 00:10:13;;;;;;;3.60;3.30;;;26.70;50.60;;;;;;5080184;28;20505;-68
2023/07/20 00:12:38;;;;;;;3.70;3.40;;;26.70;50.60;;;;;;5080521;28;20474;-68
2023/07/20 00:15:04;;;;;;;2.77;2.53;;;26.70;50.70;;;;;;5080891;28;20197;-68
2023/07/20 00:17:30;;;;;;;3.67;3.37;;;26.70;50.60;;;;;;5080807;28;20194;-68
2023/07/20 00:19:55;;;;;;;5.87;3.00;;;26.70;50.60;;;;;;5079100;28;20792;-68
2023/07/20 00:22:21;;;;;;;4.60;3.53;;;26.70;50.70;;;;;;5080288;28;20182;-68
2023/07/20 00:24:47;;;;;;;5.23;3.47;;;26.70;50.60;;;;;;5080596;28;20170;-68
2023/07/20 00:27:12;;;;;;;4.27;3.10;;;26.70;50.60;;;;;;5080283;28;20193;-68
2023/07/20 00:29:38;;;;;;;3.47;2.80;;;26.70;50.60;;;;;;5080536;28;20175;-68
2023/07/20 00:32:05;;;;;;;3.17;2.87;;;26.70;50.60;;;;;;5078898;28;20170;-69
2023/07/20 00:34:31;;;;;;;5.57;3.47;;;26.70;50.50;;;;;;5080585;28;20205;-69
2023/07/20 00:36:56;;;;;;;3.70;3.17;;;26.70;50.60;;;;;;5078501;28;20408;-68
2023/07/20 00:39:22;;;;;;;3.73;3.23;;;26.70;50.50;;;;;;5078840;28;20432;-68
2023/07/20 00:41:47;;;;;;;4.93;2.67;;;26.70;50.50;;;;;;5078962;28;20178;-67
2023/07/20 00:44:13;;;;;;;4.03;3.20;;;26.70;50.60;;;;;;5080455;28;20180;-68
2023/07/20 00:46:41;;;;;;;4.10;3.03;;;26.70;50.60;;;;;;5080314;28;20178;-68
2023/07/20 00:49:07;;;;;;;3.70;3.20;;;26.70;50.60;;;;;;5079824;28;20574;-69
2023/07/20 00:51:33;;;;;;;4.00;3.20;;;26.70;50.60;;;;;;5064369;28;20442;-67
2023/07/20 00:53:59;;;;;;;2.90;2.53;;;26.70;50.50;;;;;;5058704;28;20202;-68
2023/07/20 00:56:25;;;;;;;4.90;3.30;;;26.70;50.60;;;;;;5058837;28;20410;-68
2023/07/20 00:58:52;;;;;;;5.93;2.90;;;26.70;50.50;;;;;;5058380;28;20198;-68
2023/07/20 01:01:17;;;;;;;3.50;2.97;;;26.70;50.50;;;;;;5059346;28;20171;-68
2023/07/20 01:03:43;;;;;;;4.13;2.93;;;26.70;50.60;;;;;;5059805;28;20533;-68
2023/07/20 01:06:36;;;;;;;3.43;3.13;;;26.70;50.60;;;;;;5059955;28;20170;-68
2023/07/20 01:09:18;;;;;;;3.10;2.60;;;26.70;50.50;;;;;;5059631;28;20187;-68
2023/07/20 01:11:59;;;;;;;4.17;3.07;;;26.70;50.50;;;;;;5059586;28;20767;-68
2023/07/20 01:14:25;;;;;;;3.57;2.70;;;26.70;50.60;;;;;;5059246;28;20814;-68
2023/07/20 01:16:52;;;;;;;4.03;3.00;;;26.70;50.60;;;;;;5059523;28;20401;-68
2023/07/20 01:19:18;;;;;;;4.50;3.10;;;26.70;50.60;;;;;;5060332;28;20189;-68
2023/07/20 01:21:51;;;;;;;4.70;3.27;;;26.70;50.60;;;;;;5059728;28;20776;-68
2023/07/20 01:24:44;;;;;;;5.20;3.10;;;26.70;50.60;;;;;;5059717;28;20155;-68
2023/07/20 01:27:37;;;;;;;4.40;3.13;;;26.70;50.60;;;;;;5059031;28;20390;-68
2023/07/20 01:30:05;;;;;;;4.00;2.83;;;26.70;50.60;;;;;;5059047;28;20398;-68
2023/07/20 01:32:32;;;;;;;6.30;3.50;;;26.70;50.70;;;;;;5059115;28;20421;-68
2023/07/20 01:34:59;;;;;;;5.30;3.10;;;26.70;50.70;;;;;;5058952;28;20495;-68
2023/07/20 01:37:29;;;;;;;3.33;3.03;;;26.70;50.70;;;;;;5059038;28;20843;-68
2023/07/20 01:39:55;;;;;;;2.63;2.43;;;26.70;50.70;;;;;;5059430;28;20389;-68
2023/07/20 01:42:24;;;;;;;3.57;2.90;;;26.70;50.70;;;;;;5059161;28;20409;-68
2023/07/20 01:44:53;;;;;;;4.13;3.03;;;26.70;50.70;;;;;;5059528;28;20464;-68
2023/07/20 01:47:19;;;;;;;3.23;2.93;;;26.70;50.70;;;;;;5059180;28;20406;-68
2023/07/20 01:49:45;;;;;;;3.33;2.63;;;26.70;50.70;;;;;;5058335;28;20428;-68
2023/07/20 01:52:11;;;;;;;3.70;3.40;;;26.70;50.70;;;;;;5058989;28;20199;-68
2023/07/20 01:54:36;;;;;;;3.67;3.20;;;26.70;50.80;;;;;;5058983;28;20198;-68
2023/07/20 01:57:02;;;;;;;3.70;2.87;;;26.60;50.70;;;;;;5059171;28;20175;-68
2023/07/20 01:59:28;;;;;;;4.50;3.30;;;26.60;50.80;;;;;;5057200;28;20185;-68
2023/07/20 02:01:53;;;;;;;5.83;3.50;;;26.70;50.80;;;;;;5058642;28;20203;-68
2023/07/20 02:04:19;;;;;;;3.33;2.80;;;26.70;50.80;;;;;;5059063;28;20181;-68
2023/07/20 02:06:45;;;;;;;5.50;4.00;;;26.70;50.70;;;;;;5058981;28;20622;-68
2023/07/20 02:09:10;;;;;;;3.90;3.10;;;26.60;50.80;;;;;;5058229;28;20195;-68
2023/07/20 02:11:36;;;;;;;3.50;3.20;;;26.60;50.90;;;;;;5058807;28;20190;-68
2023/07/20 02:14:01;;;;;;;4.10;3.57;;;26.60;50.90;;;;;;5058866;28;20202;-68
2023/07/20 02:16:27;;;;;;;3.17;2.87;;;26.60;51.00;;;;;;5058587;28;20164;-68
2023/07/20 02:18:53;;;;;;;3.70;3.00;;;26.70;51.10;;;;;;5058717;28;20216;-68
2023/07/20 02:21:18;;;;;;;3.33;3.03;;;26.60;50.70;;;;;;5058381;28;20166;-68
2023/07/20 02:23:44;;;;;;;4.57;3.50;;;26.70;51.10;;;;;;5057678;28;20547;-68
2023/07/20 02:26:09;;;;;;;3.40;3.10;;;26.70;51.10;;;;;;5057153;28;20175;-69
2023/07/20 02:28:35;;;;;;;3.50;3.10;;;26.60;51.00;;;;;;5058458;28;20187;-68
2023/07/20 02:31:01;;;;;;;5.50;3.70;;;26.60;51.00;;;;;;5058297;28;20171;-68
2023/07/20 02:33:26;;;;;;;5.20;3.00;;;26.60;51.00;;;;;;5058258;28;20178;-68
2023/07/20 02:35:52;;;;;;;3.90;3.50;;;26.70;51.10;;;;;;5058047;28;20306;-68
2023/07/20 02:38:17;;;;;;;3.90;3.50;;;26.70;51.10;;;;;;5058248;28;20237;-68
2023/07/20 02:40:43;;;;;;;3.03;2.77;;;26.70;51.10;;;;;;5056458;28;20179;-68
2023/07/20 02:43:09;;;;;;;6.13;3.40;;;26.70;51.00;;;;;;5058491;28;20206;-68
2023/07/20 02:45:35;;;;;;;3.43;3.13;;;26.70;51.10;;;;;;5058121;28;20257;-68
2023/07/20 02:48:01;;;;;;;4.10;3.60;;;26.60;51.00;;;;;;5058566;28;20197;-68
2023/07/20 02:50:26;;;;;;;3.50;2.83;;;26.60;51.00;;;;;;5058603;28;20461;-68
2023/07/20 02:52:52;;;;;;;3.60;3.10;;;26.60;51.10;;;;;;5058175;28;20174;-68
2023/07/20 02:55:18;;;;;;;4.90;3.47;;;26.70;51.10;;;;;;5057624;28;20687;-68
2023/07/20 02:57:43;;;;;;;3.60;3.20;;;26.60;51.10;;;;;;5058180;28;20285;-68
2023/07/20 03:00:09;;;;;;;3.80;3.43;;;26.60;51.60;;;;;;5057635;28;20177;-68
2023/07/20 03:02:36;;;;;;;3.27;2.90;;;26.60;51.10;;;;;;5057805;28;20175;-68
2023/07/20 03:05:02;;;;;;;3.67;2.90;;;26.70;51.20;;;;;;5057253;28;20417;-68
2023/07/20 03:07:28;;;;;;;4.17;2.93;;;26.60;51.10;;;;;;5058081;28;20193;-68
2023/07/20 03:09:55;;;;;;;3.97;2.73;;;26.60;51.10;;;;;;5057478;28;20496;-68
2023/07/20 03:12:21;;;;;;;4.43;3.20;;;26.70;51.20;;;;;;5057693;28;20422;-68
2023/07/20 03:14:46;;;;;;;3.50;3.10;;;26.60;51.10;;;;;;5057058;28;20453;-68
2023/07/20 03:17:12;;;;;;;3.20;2.90;;;26.60;51.10;;;;;;5057453;28;20417;-68
2023/07/20 03:19:37;;;;;;;3.53;2.97;;;26.60;51.20;;;;;;5057454;28;20225;-68
2023/07/20 03:22:03;;;;;;;3.53;3.20;;;26.60;51.20;;;;;;5057460;28;20167;-68
2023/07/20 03:24:29;;;;;;;3.47;3.17;;;26.60;51.10;;;;;;5057120;28;20167;-68
2023/07/20 03:26:54;;;;;;;3.23;2.93;;;26.60;51.80;;;;;;5055853;28;20622;-68
2023/07/20 03:29:20;;;;;;;4.87;3.07;;;26.60;51.10;;;;;;5056992;28;20198;-68
2023/07/20 03:31:45;;;;;;;5.23;3.57;;;26.60;51.10;;;;;;5057366;28;20769;-68
2023/07/20 03:34:11;;;;;;;4.87;3.20;;;26.60;51.20;;;;;;5057459;28;20202;-68
2023/07/20 03:36:36;;;;;;;3.57;3.00;;;26.60;51.10;;;;;;5057029;28;20174;-68
2023/07/20 03:39:03;;;;;;;4.03;3.50;;;26.60;51.10;;;;;;5057337;28;20223;-68
2023/07/20 03:41:28;;;;;;;4.77;3.50;;;26.60;51.10;;;;;;5055958;28;20554;-68
2023/07/20 03:43:54;;;;;;;3.40;2.87;;;26.60;51.10;;;;;;5057204;28;20413;-68
2023/07/20 03:46:19;;;;;;;3.30;2.57;;;26.60;51.10;;;;;;5056741;28;20179;-67
2023/07/20 03:48:45;;;;;;;3.93;3.10;;;26.60;51.00;;;;;;5056743;28;20241;-68
2023/07/20 03:51:11;;;;;;;3.13;2.80;;;26.60;51.10;;;;;;5056303;28;20190;-68
2023/07/20 03:53:36;;;;;;;5.23;3.30;;;26.60;51.00;;;;;;5055624;28;20186;-67
2023/07/20 03:56:02;;;;;;;4.50;3.20;;;26.60;51.00;;;;;;5055502;28;20185;-67
2023/07/20 03:58:29;;;;;;;3.33;2.77;;;26.60;50.90;;;;;;5055895;28;20226;-68
2023/07/20 04:00:55;;;;;;;2.80;2.57;;;26.60;50.80;;;;;;5055977;28;20528;-68
2023/07/20 04:03:22;;;;;;;3.93;2.60;;;26.60;50.80;;;;;;5055360;28;20471;-68
2023/07/20 04:05:48;;;;;;;3.43;2.70;;;26.50;50.70;;;;;;5055921;28;20201;-68
2023/07/20 04:08:13;;;;;;;3.37;3.07;;;26.50;50.70;;;;;;5054741;28;20437;-68
2023/07/20 04:10:43;;;;;;;3.80;3.50;;;26.60;51.40;;;;;;5056201;28;20214;-68
2023/07/20 04:13:08;;;;;;;3.90;3.30;;;26.60;51.40;;;;;;5056345;28;20309;-68
2023/07/20 04:15:34;;;;;;;3.73;3.00;;;26.60;50.90;;;;;;5055735;28;20511;-68
2023/07/20 04:18:00;;;;;;;3.60;3.17;;;26.50;50.90;;;;;;5055474;28;20228;-68
2023/07/20 04:20:26;;;;;;;4.40;3.33;;;26.50;50.90;;;;;;5056327;28;20202;-68
2023/07/20 04:22:51;;;;;;;3.00;2.70;;;26.50;51.00;;;;;;5055762;28;20406;-68
2023/07/20 04:25:20;;;;;;;3.13;2.83;;;26.50;51.00;;;;;;5055494;28;20183;-68
2023/07/20 04:27:46;;;;;;;3.20;2.87;;;26.50;51.50;;;;;;5055889;28;20305;-68
2023/07/20 04:30:12;;;;;;;3.07;2.77;;;26.50;50.90;;;;;;5056530;28;20458;-69
2023/07/20 04:32:44;;;;;;;3.20;2.80;;;26.50;50.80;;;;;;5055895;28;20258;-68
2023/07/20 04:35:09;;;;;;;4.03;2.90;;;26.50;50.80;;;;;;5045951;28;20458;-68
2023/07/20 04:37:35;;;;;;;4.03;2.90;;;26.50;50.70;;;;;;5034177;28;20873;-68
2023/07/20 04:40:01;;;;;;;3.63;3.20;;;26.50;50.70;;;;;;5034594;28;20164;-68
2023/07/20 04:42:27;;;;;;;4.57;3.00;;;26.50;50.60;;;;;;5035162;28;20167;-68
2023/07/20 04:44:52;;;;;;;6.97;3.50;;;26.50;50.70;;;;;;5036016;28;20949;-68
2023/07/20 04:47:18;;;;;;;3.53;2.80;;;26.50;50.70;;;;;;5036456;28;20179;-68
2023/07/20 04:49:43;;;;;;;4.33;3.00;;;26.50;50.70;;;;;;5039414;28;20278;-68
2023/07/20 04:52:09;;;;;;;6.03;3.90;;;26.50;50.70;;;;;;5040574;28;20628;-68
2023/07/20 04:54:34;;;;;;;3.20;2.87;;;26.50;50.80;;;;;;5040170;28;20231;-68
2023/07/20 04:57:00;;;;;;;3.40;3.10;;;26.50;50.80;;;;;;5039140;28;20234;-68
2023/07/20 04:59:25;;;;;;;4.90;3.10;;;26.50;50.80;;;;;;5051853;28;20301;-68
2023/07/20 05:01:51;;;;;;;5.03;3.50;;;26.50;50.80;;;;;;5057679;28;20175;-68
2023/07/20 05:04:17;;;;;;;3.37;3.07;;;26.50;50.80;;;;;;5057591;28;20233;-68
2023/07/20 05:06:43;;;;;;;3.50;2.83;;;26.50;50.90;;;;;;5057477;28;20254;-69
2023/07/20 05:09:08;;;;;;;4.53;3.30;;;26.50;50.90;;;;;;5056856;28;20618;-68
2023/07/20 05:11:34;;;;;;;3.70;2.83;;;26.50;50.80;;;;;;5057766;28;20479;-68
2023/07/20 05:14:00;;;;;;;4.67;3.20;;;26.50;50.90;;;;;;5058780;28;20210;-68
2023/07/20 05:16:26;;;;;;;4.60;2.90;;;26.50;50.90;;;;;;5059404;28;20666;-68
2023/07/20 05:18:51;;;;;;;3.77;3.13;;;26.50;50.80;;;;;;5059301;28;20437;-68
2023/07/20 05:21:17;;;;;;;2.70;2.50;;;26.50;50.80;;;;;;5058470;28;20183;-68
2023/07/20 05:23:43;;;;;;;2.93;2.63;;;26.50;50.80;;;;;;5059510;28;20197;-68
2023/07/20 05:26:09;;;;;;;4.77;3.30;;;26.50;50.70;;;;;;5058179;28;20175;-68
2023/07/20 05:28:34;;;;;;;3.13;2.83;;;26.50;50.70;;;;;;5058928;28;20225;-68
2023/07/20 05:31:03;;;;;;;3.47;2.90;;;26.40;50.60;;;;;;5057972;28;20171;-68
2023/07/20 05:33:28;;;;;;;3.03;2.50;;;26.40;50.50;;;;;;5059435;28;20625;-68
2023/07/20 05:35:54;;;;;;;4.27;2.97;;;26.40;50.40;;;;;;5058913;28;20507;-69
2023/07/20 05:38:20;;;;;;;2.80;2.60;;;26.40;50.40;;;;;;5058698;28;20195;-68
2023/07/20 05:40:46;;;;;;;5.27;2.83;;;26.40;50.30;;;;;;5059307;28;20223;-68
2023/07/20 05:43:12;;;;;;;3.00;2.60;;;26.40;50.30;;;;;;5059221;28;20205;-67
2023/07/20 05:45:41;;;;;;;3.30;3.00;;;26.40;50.20;;;;;;5058179;28;20441;-68
2023/07/20 05:48:09;;;;;;;3.80;3.03;;;26.40;50.10;;;;;;5056376;28;20433;-68
2023/07/20 05:50:35;;;;;;;2.47;2.27;;;26.40;50.10;;;;;;5055645;28;20433;-68
2023/07/20 05:53:00;;;;;;;3.47;3.10;;;26.40;50.00;;;;;;5060388;28;20445;-68
2023/07/20 05:55:26;;;;;;;3.10;2.80;;;26.30;50.30;;;;;;5059891;28;20213;-67
2023/07/20 05:57:51;;;;;;;3.87;3.07;;;26.40;49.80;;;;;;5060399;28;20210;-68
2023/07/20 06:00:19;;;;;;;3.80;3.13;;;26.30;49.70;;;;;;5059979;28;20183;-68
2023/07/20 06:02:44;;;;;;;3.17;2.73;;;26.30;49.60;;;;;;5058388;28;20304;-68
2023/07/20 06:05:10;;;;;;;2.80;2.40;;;26.30;49.50;;;;;;5059954;28;20413;-68
2023/07/20 06:07:37;;;;;;;2.90;2.70;;;26.30;49.50;;;;;;5059524;28;20682;-68
2023/07/20 06:10:03;;;;;;;3.10;2.80;;;26.30;49.40;;;;;;5059658;28;20183;-68
2023/07/20 06:12:29;;;;;;;3.90;3.20;;;26.30;49.40;;;;;;5060215;28;20420;-68
2023/07/20 06:14:54;;;;;;;4.23;2.77;;;26.30;49.40;;;;;;5059778;28;20492;-68
2023/07/20 06:17:20;;;;;;;3.20;2.90;;;26.30;49.40;;;;;;5059678;28;20179;-69
2023/07/20 06:19:46;;;;;;;3.27;2.77;;;26.40;49.40;;;;;;5059914;28;20172;-68
2023/07/20 06:22:12;;;;;;;3.37;2.50;;;26.30;49.20;;;;;;5057543;28;20883;-67
2023/07/20 06:24:37;;;;;;;4.23;2.80;;;26.30;49.00;;;;;;5059611;28;20702;-68
2023/07/20 06:27:05;;;;;;;3.20;2.87;;;26.30;49.40;;;;;;5058182;28;20187;-68
2023/07/20 06:29:31;;;;;;;4.03;3.13;;;26.30;48.80;;;;;;5058236;28;20174;-68
2023/07/20 06:31:56;;;;;;;3.40;3.10;;;26.30;48.60;;;;;;5058994;28;20419;-68
2023/07/20 06:34:22;;;;;;;3.67;2.90;;;26.30;48.40;;;;;;5059353;28;20233;-68
2023/07/20 06:36:47;;;;;;;3.90;3.13;;;26.20;48.30;;;;;;5059577;28;20171;-68
2023/07/20 06:39:14;;;;;;;3.87;3.47;;;26.20;48.20;;;;;;5059015;28;20672;-68
2023/07/20 06:41:39;;;;;;;7.07;3.23;;;26.20;48.70;;;;;;5041390;28;20682;-68
2023/07/20 06:44:05;;;;;;;4.40;3.70;;;26.20;48.10;;;;;;5059189;28;20413;-68
2023/07/20 06:46:31;;;;;;;3.67;2.80;;;26.20;47.90;;;;;;5058669;28;20342;-68
2023/07/20 06:48:56;;;;;;;3.20;2.90;;;26.10;47.70;;;;;;5056823;28;20214;-68
2023/07/20 06:51:22;;;;;;;2.93;2.50;;;26.10;47.60;;;;;;5056971;28;20293;-68
2023/07/20 06:53:48;;;;;;;4.40;3.03;;;26.10;47.70;;;;;;5059155;28;20461;-69
2023/07/20 06:56:14;;;;;;;2.73;2.53;;;26.10;47.70;;;;;;5059099;28;20183;-68
2023/07/20 06:58:40;;;;;;;2.73;2.50;;;26.00;47.50;;;;;;5058742;28;20674;-68
2023/07/20 07:01:08;;;;;;;2.70;2.40;;;26.00;47.60;;;;;;5059267;28;20771;-68
2023/07/20 07:03:34;;;;;;;2.47;2.27;;;26.00;47.60;;;;;;5058939;28;20182;-68
2023/07/20 07:06:00;;;;;;;3.57;2.97;;;26.00;47.60;;;;;;5059317;28;20910;-68
2023/07/20 07:08:26;;;;;;;2.63;2.43;;;25.90;47.30;;;;;;5059027;28;20199;-68
2023/07/20 07:10:52;;;;;;;3.20;2.57;;;26.00;47.50;;;;;;5057833;28;20406;-68
2023/07/20 07:13:18;;;;;;;3.53;2.70;;;26.00;47.40;;;;;;5058379;28;20648;-68
2023/07/20 07:15:44;;;;;;;2.73;2.53;;;25.90;47.10;;;;;;5058396;28;20480;-69
2023/07/20 07:18:10;;;;;;;2.60;2.40;;;25.90;47.20;;;;;;5058183;28;20508;-68
2023/07/20 07:20:36;;;;;;;4.17;2.67;;;25.90;47.30;;;;;;5058843;28;20185;-68
2023/07/20 07:23:01;;;;;;;2.60;2.00;;;25.90;47.20;;;;;;5057292;28;20603;-68
2023/07/20 07:25:28;;;;;;;4.27;2.67;;;25.90;47.20;;;;;;5058669;28;20175;-67
2023/07/20 07:27:55;;;;;;;2.57;2.37;;;25.90;47.20;;;;;;5058209;28;20249;-68
2023/07/20 07:30:21;;;;;;;2.90;2.50;;;25.90;47.20;;;;;;5058275;28;20433;-68
2023/07/20 07:32:46;;;;;;;5.20;2.40;;;25.90;47.30;;;;;;5057316;28;20514;-67
2023/07/20 07:35:12;;;;;;;4.60;2.60;;;25.90;47.20;;;;;;5058337;28;20199;-67
2023/07/20 07:37:38;;;;;;;3.40;3.10;;;25.90;47.30;;;;;;5058366;28;20198;-68
2023/07/20 07:40:05;;;;;;;2.83;2.40;;;26.00;47.40;;;;;;5058568;28;20914;-68
2023/07/20 07:42:31;;;;;;;2.80;2.50;;;26.00;47.40;;;;;;5058439;28;20167;-68
2023/07/20 07:44:57;;;;;;;2.67;1.97;;;26.00;47.40;;;;;;5058148;28;20501;-68
2023/07/20 07:47:22;;;;;;;3.80;2.80;;;26.00;47.90;;;;;;5057555;28;20309;-68
2023/07/20 07:49:48;;;;;;;2.57;2.37;;;26.00;47.30;;;;;;5057131;28;20201;-68
2023/07/20 07:52:14;;;;;;;2.67;2.17;;;26.00;47.20;;;;;;5055233;28;20644;-68
2023/07/20 07:54:40;;;;;;;4.07;2.57;;;26.00;47.00;;;;;;5057774;28;20261;-68
2023/07/20 07:57:06;;;;;;;2.57;2.37;;;26.00;47.00;;;;;;5056938;28;20234;-68
2023/07/20 07:59:36;;;;;;;3.30;2.17;;;26.00;47.10;;;;;;5056736;28;20179;-67
2023/07/20 08:02:02;;;;;;;2.53;2.33;;;26.00;47.00;;;;;;5056987;28;20398;-68
2023/07/20 08:04:28;;;;;;;3.43;2.40;;;26.00;47.00;;;;;;5057005;28;20409;-68
2023/07/20 08:06:54;;;;;;;1.93;1.80;;;26.00;47.10;;;;;;5056988;28;20916;-68
2023/07/20 08:09:19;;;;;;;4.13;2.10;;;26.00;47.20;;;;;;5056803;28;20686;-68
2023/07/20 08:11:45;;;;;;;2.47;1.93;;;26.00;47.10;;;;;;5056873;28;20178;-68
2023/07/20 08:14:10;;;;;;;2.60;2.40;;;26.00;47.20;;;;;;5057414;28;20664;-68
2023/07/20 08:16:36;;;;;;;3.13;2.13;;;26.10;47.20;;;;;;5057117;28;20171;-68
2023/07/20 08:19:02;;;;;;;1.90;1.70;;;26.00;47.00;;;;;;5056926;28;20565;-68
2023/07/20 08:21:28;;;;;;;2.23;1.90;;;26.10;47.00;;;;;;5055821;28;20175;-68
2023/07/20 08:23:53;;;;;;;2.30;1.87;;;26.10;46.90;;;;;;5060265;28;20412;-67
2023/07/20 08:26:22;;;;;;;3.80;2.00;;;26.10;46.90;;;;;;5061718;28;20174;-68
2023/07/20 08:28:48;;;;;;;4.33;2.07;;;26.10;46.70;;;;;;5061227;28;20187;-68
2023/07/20 08:31:13;;;;;;;2.70;2.50;;;26.10;46.60;;;;;;5059602;28;20424;-68
2023/07/20 08:33:39;;;;;;;2.57;1.80;;;26.10;46.50;;;;;;5060379;28;20512;-68
2023/07/20 08:36:05;;;;;;;2.13;1.90;;;26.10;46.40;;;;;;5060223;28;20206;-68
2023/07/20 08:38:31;;;;;;;2.03;1.83;;;26.10;46.40;;;;;;5060132;28;20186;-68
2023/07/20 08:40:59;;;;;;;1.90;1.80;;;26.10;46.40;;;;;;5060156;28;20754;-68
2023/07/20 08:43:25;;;;;;;2.47;1.83;;;26.10;46.50;;;;;;5059878;28;20545;-68
2023/07/20 08:45:53;;;;;;;2.37;1.90;;;26.10;46.40;;;;;;5060862;28;20417;-69
2023/07/20 08:48:20;;;;;;;4.03;1.70;;;26.10;46.90;;;;;;5060020;28;20193;-68
2023/07/20 08:50:50;;;;;;;2.80;1.97;;;26.10;46.30;;;;;;5061247;28;20778;-68
2023/07/20 08:53:16;;;;;;;2.43;1.97;;;26.10;46.10;;;;;;5059103;28;20431;-67
2023/07/20 08:55:45;;;;;;;2.23;2.03;;;26.20;46.20;;;;;;5059995;28;21060;-68
2023/07/20 08:58:14;;;;;;;2.67;2.20;;;26.10;46.10;;;;;;5058429;28;20448;-68
2023/07/20 09:00:41;;;;;;;2.80;2.03;;;26.10;46.10;;;;;;5059000;28;20436;-68
2023/07/20 09:03:07;;;;;;;2.00;1.70;;;26.10;46.10;;;;;;5060732;28;20444;-67
2023/07/20 09:05:35;;;;;;;2.37;1.57;;;26.20;46.20;;;;;;5060423;28;20424;-68
2023/07/20 09:08:02;;;;;;;3.33;2.00;;;26.20;46.30;;;;;;5057677;28;20440;-67
2023/07/20 09:10:28;;;;;;;3.20;2.30;;;26.20;46.10;;;;;;5059219;28;20495;-68
2023/07/20 09:12:55;;;;;;;2.20;1.70;;;26.20;46.20;;;;;;5059043;28;20429;-67
2023/07/20 09:15:22;;;;;;;5.17;2.00;;;26.20;46.20;;;;;;5058364;28;20233;-68
2023/07/20 09:17:48;;;;;;;5.23;2.00;;;26.20;46.20;;;;;;5058376;28;20433;-68
2023/07/20 09:20:16;;;;;;;2.83;2.00;;;26.20;46.20;;;;;;5058857;28;20476;-67
2023/07/20 09:22:42;;;;;;;2.63;1.80;;;26.30;46.00;;;;;;5058429;28;20453;-68
2023/07/20 09:25:15;;;;;;;3.03;2.20;;;26.20;46.00;;;;;;5058102;28;20479;-68
2023/07/20 09:27:42;;;;;;;3.40;2.03;;;26.30;46.10;;;;;;5057752;28;20437;-67
2023/07/20 09:30:10;;;;;;;2.03;1.83;;;26.30;46.10;;;;;;5057808;28;20424;-68
2023/07/20 09:32:41;;;;;;;3.27;2.00;;;26.30;46.00;;;;;;5058100;28;20425;-68
2023/07/20 09:35:12;;;;;;;3.00;2.20;;;26.30;45.90;;;;;;5057575;28;20985;-68
2023/07/20 09:37:37;;;;;;;5.00;2.83;;;26.20;45.80;;;;;;5058273;28;20425;-68
2023/07/20 09:40:08;;;;;;;4.57;2.40;;;26.20;45.70;;;;;;5058348;28;20414;-68
2023/07/20 09:42:36;;;;;;;4.00;2.63;;;26.30;45.90;;;;;;5058101;28;20289;-68
2023/07/20 09:45:02;;;;;;;4.07;2.80;;;26.20;45.80;;;;;;5058165;28;20414;-67
2023/07/20 09:47:29;;;;;;;2.50;2.30;;;26.20;45.80;;;;;;5058774;28;20569;-68
2023/07/20 09:50:00;;;;;;;4.60;2.77;;;26.20;45.90;;;;;;5057786;28;20515;-68
2023/07/20 09:52:26;;;;;;;2.77;2.30;;;26.20;45.90;;;;;;5056155;28;20420;-68
2023/07/20 09:54:54;;;;;;;2.87;2.60;;;26.20;45.90;;;;;;5056434;28;20460;-68
2023/07/20 09:57:21;;;;;;;2.63;2.10;;;26.20;45.90;;;;;;5056513;28;20178;-68
2023/07/20 09:59:46;;;;;;;2.73;2.37;;;26.20;46.00;;;;;;5053922;28;20413;-68
2023/07/20 10:02:25;;;;;;;3.93;2.37;;;26.20;46.00;;;;;;5055490;28;20410;-68
2023/07/20 10:04:53;;;;;;;2.73;2.00;;;26.20;46.10;;;;;;5054786;28;20193;-68
2023/07/20 10:07:22;;;;;;;4.47;2.73;;;26.20;46.60;;;;;;5054609;28;20414;-69
2023/07/20 10:09:50;;;;;;;3.73;2.50;;;26.20;46.10;;;;;;5055570;28;20444;-68
2023/07/20 10:12:16;;;;;;;2.70;2.40;;;26.20;46.20;;;;;;5056361;28;20405;-68
2023/07/20 10:14:51;;;;;;;3.57;2.47;;;26.30;46.20;;;;;;5054740;28;20481;-68
2023/07/20 10:17:18;;;;;;;3.07;2.30;;;26.20;46.20;;;;;;5055088;28;20754;-67
2023/07/20 10:19:49;;;;;;;4.97;2.70;;;26.30;46.10;;;;;;5054826;28;20417;-68
2023/07/20 10:22:23;;;;;;;3.90;2.30;;;26.30;46.00;;;;;;5054545;28;20774;-68
2023/07/20 10:24:53;;;;;;;3.80;2.33;;;26.30;46.00;;;;;;5054374;28;20408;-68
2023/07/20 10:27:22;;;;;;;2.73;2.40;;;26.30;45.90;;;;;;5054444;28;20784;-67
2023/07/20 10:29:48;;;;;;;2.53;2.33;;;26.30;45.90;;;;;;5054992;28;20779;-67
2023/07/20 10:32:14;;;;;;;2.80;2.30;;;26.30;46.00;;;;;;5054596;28;20933;-68
2023/07/20 10:34:40;;;;;;;3.43;2.50;;;26.30;45.90;;;;;;5053003;28;20457;-68
2023/07/20 10:37:06;;;;;;;2.67;2.30;;;26.40;45.90;;;;;;5054699;28;20426;-68
2023/07/20 10:39:33;;;;;;;3.27;2.90;;;26.30;45.60;;;;;;5054673;28;20647;-68
2023/07/20 10:42:09;;;;;;;3.03;2.53;;;26.40;45.70;;;;;;5054170;28;20441;-67
2023/07/20 10:44:37;;;;;;;3.43;2.40;;;26.40;45.50;;;;;;5057163;28;20428;-67
2023/07/20 10:47:09;;;;;;;2.20;2.00;;;26.30;45.40;;;;;;5057550;28;20925;-68
2023/07/20 10:49:35;;;;;;;5.43;2.40;;;26.30;45.50;;;;;;5057339;28;20437;-68
2023/07/20 10:52:05;;;;;;;2.17;1.80;;;26.30;45.40;;;;;;5057744;28;20409;-68
2023/07/20 10:54:31;;;;;;;4.03;2.40;;;26.30;45.20;;;;;;5058172;28;20630;-67
2023/07/20 10:56:57;;;;;;;2.70;2.13;;;26.30;45.10;;;;;;5057267;28;20987;-68
2023/07/20 10:59:23;;;;;;;3.53;2.20;;;26.30;45.10;;;;;;5057296;28;20683;-67
2023/07/20 11:01:49;;;;;;;2.83;2.53;;;26.30;45.10;;;;;;5057148;28;20405;-68
2023/07/20 11:04:19;;;;;;;3.60;2.70;;;26.30;45.10;;;;;;5057381;28;20554;-68
2023/07/20 11:06:45;;;;;;;4.67;2.63;;;26.30;45.10;;;;;;5056609;28;20504;-68
2023/07/20 11:09:15;;;;;;;4.73;2.60;;;26.30;45.20;;;;;;5056197;28;20522;-68
2023/07/20 11:11:43;;;;;;;5.97;3.20;;;26.30;45.20;;;;;;5058246;28;20421;-68
2023/07/20 11:14:10;;;;;;;6.13;4.00;;;26.30;45.10;;;;;;5057405;28;20461;-68
2023/07/20 11:16:47;;;;;;;2.43;2.20;;;26.20;45.10;;;;;;5056361;28;20449;-68
2023/07/20 11:19:15;;;;;;;23.07;4.03;;;26.30;45.10;;;;;;5057665;28;20508;-68
2023/07/20 11:21:42;;;;;;;3.27;2.80;;;26.30;45.10;;;;;;5056814;28;20406;-69
2023/07/20 11:24:09;;;;;;;4.80;2.40;;;26.30;45.00;;;;;;5057752;28;20409;-69
2023/07/20 11:27:01;;;;;;;3.03;2.73;;;26.30;45.10;;;;;;5057249;28;20414;-68
2023/07/20 11:29:27;;;;;;;2.70;1.93;;;26.30;45.00;;;;;;5055983;28;20455;-68
2023/07/20 11:31:53;;;;;;;2.40;2.20;;;26.30;45.10;;;;;;5057602;28;20421;-68
2023/07/20 11:34:20;;;;;;;2.27;1.93;;;26.30;45.00;;;;;;5057368;28;20449;-68
2023/07/20 11:36:47;;;;;;;3.17;2.23;;;26.30;44.90;;;;;;5056830;28;20687;-68
2023/07/20 11:39:15;;;;;;;2.70;2.40;;;26.30;44.80;;;;;;5038910;28;20425;-68
2023/07/20 11:41:54;;;;;;;2.40;2.10;;;26.30;44.80;;;;;;5057045;28;20402;-67
2023/07/20 11:44:26;;;;;;;1.97;1.67;;;26.30;44.60;;;;;;5057047;28;20401;-68
2023/07/20 11:47:03;;;;;;;2.33;2.00;;;26.30;44.60;;;;;;5056631;28;20405;-68
2023/07/20 11:49:29;;;;;;;2.50;2.03;;;26.30;44.70;;;;;;5056651;28;20941;-67
2023/07/20 11:51:56;;;;;;;2.40;1.90;;;26.30;44.50;;;;;;5057151;28;20412;-68
2023/07/20 11:54:22;;;;;;;2.77;2.20;;;26.30;44.60;;;;;;5057101;28;20457;-68
2023/07/20 11:56:48;;;;;;;2.50;2.20;;;26.20;44.80;;;;;;5059947;28;20436;-68
2023/07/20 11:59:14;;;;;;;2.47;2.27;;;26.30;44.50;;;;;;5062586;28;20437;-68
2023/07/20 12:01:39;;;;;;;5.30;2.70;;;26.30;44.60;;;;;;5045488;28;20293;-68
2023/07/20 12:04:06;;;;;;;3.10;2.23;;;26.20;44.60;;;;;;5063836;28;20170;-68
2023/07/20 12:06:32;;;;;;;3.57;2.47;;;26.30;44.60;;;;;;5062857;28;20182;-68
2023/07/20 12:08:58;;;;;;;4.90;2.67;;;26.30;44.70;;;;;;5064193;28;20421;-68
2023/07/20 12:11:39;;;;;;;4.53;2.43;;;26.30;44.70;;;;;;5064214;28;20299;-68
2023/07/20 12:14:08;;;;;;;3.13;2.40;;;26.30;44.80;;;;;;5063913;28;20407;-68
2023/07/20 12:16:36;;;;;;;2.80;1.93;;;26.30;44.80;;;;;;5062126;28;20409;-69
2023/07/20 12:19:06;;;;;;;3.67;2.17;;;26.30;44.70;;;;;;5063743;28;20439;-68
2023/07/20 12:21:33;;;;;;;2.57;2.00;;;26.30;44.60;;;;;;5064325;28;20436;-68
2023/07/20 12:23:59;;;;;;;3.83;1.80;;;26.30;44.70;;;;;;5064214;28;20413;-68
2023/07/20 12:26:26;;;;;;;2.33;2.13;;;26.30;44.80;;;;;;5064500;28;20421;-68
2023/07/20 12:28:52;;;;;;;3.10;2.20;;;26.30;44.80;;;;;;5064673;28;20201;-68
2023/07/20 12:31:18;;;;;;;2.00;1.80;;;26.20;44.50;;;;;;5063118;28;20512;-68
2023/07/20 12:33:43;;;;;;;2.50;1.90;;;26.30;44.40;;;;;;5063312;28;20949;-68
2023/07/20 12:36:10;;;;;;;2.93;2.07;;;26.30;44.20;;;;;;5064143;28;20198;-68
2023/07/20 12:38:36;;;;;;;4.90;2.20;;;26.30;44.40;;;;;;5064293;28;20646;-68
2023/07/20 12:41:02;;;;;;;2.43;2.00;;;26.20;44.40;;;;;;5064437;28;20437;-68
2023/07/20 12:43:29;;;;;;;2.67;2.00;;;26.30;44.30;;;;;;5064217;28;20644;-69
2023/07/20 12:45:55;;;;;;;2.43;2.07;;;26.30;44.40;;;;;;5064286;28;20905;-68